sensor_id;sensor_type;location;lat;lon;timestamp;pressure;altitude;pressure_sealevel;temperature;humidity
68965;BME280;56017;48.680;8.998;2023-03-18T00:00:03;96260;;;12.9;77
68965;BME280;56017;48.680;8.998;2023-03-18T00:02:33;96260;;;12.9;77
68965;BME280;56017;48.680;8.998;2023-03-18T00:05:04;96250;;;12.9;77
68965;BME280;56017;48.680;8.998;2023-03-18T00:07:35;96250;;;12.9;77
68965;BME280;56017;48.680;8.998;2023-03-18T00:10:06;96260;;;12.9;77
68965;BME280;56017;48.680;8.998;2023-03-18T00:12:37;96260;;;12.8;77
68965;BME280;56017;48.680;8.998;2023-03-18T00:15:08;96270;;;12.8;77
68965;BME280;56017;48.680;8.998;2023-03-18T00:17:45;96270;;;12.8;77
68965;BME280;56017;48.680;8.998;2023-03-18T00:20:10;96270;;;12.8;77
68965;BME280;56017;48.680;8.998;2023-03-18T00:22:41;96270;;;12.8;77
68965;BME280;56017;48.680;8.998;2023-03-18T00:25:12;96280;;;12.9;77
68965;BME280;56017;48.680;8.998;2023-03-18T00:27:57;96290;;;12.8;77
68965;BME280;56017;48.680;8.998;2023-03-18T00:30:13;96280;;;12.7;77
68965;BME280;56017;48.680;8.998;2023-03-18T00:32:44;96290;;;12.6;77.5
68965;BME280;56017;48.680;8.998;2023-03-18T00:35:22;96290;;;12.6;77.5
68965;BME280;56017;48.680;8.998;2023-03-18T00:37:46;96290;;;12.6;77.5
68965;BME280;56017;48.680;8.998;2023-03-18T00:40:17;96300;;;12.7;77
68965;BME280;56017;48.680;8.998;2023-03-18T00:42:48;96300;;;12.6;77
68965;BME280;56017;48.680;8.998;2023-03-18T00:45:19;96300;;;12.6;77
68965;BME280;56017;48.680;8.998;2023-03-18T00:47:50;96300;;;12.6;77
68965;BME280;56017;48.680;8.998;2023-03-18T00:50:21;96300;;;12.5;77
68965;BME280;56017;48.680;8.998;2023-03-18T00:52:52;96310;;;12.5;77.5
68965;BME280;56017;48.680;8.998;2023-03-18T00:55:23;96300;;;12.4;77
68965;BME280;56017;48.680;8.998;2023-03-18T00:57:54;96310;;;12.4;77.5
68965;BME280;56017;48.680;8.998;2023-03-18T01:00:33;96320;;;12.4;77.5
68965;BME280;56017;48.680;8.998;2023-03-18T01:02:56;96310;;;12.5;77.5
68965;BME280;56017;48.680;8.998;2023-03-18T01:05:27;96310;;;12.5;77.5
68965;BME280;56017;48.680;8.998;2023-03-18T01:08:05;96320;;;12.6;77
68965;BME280;56017;48.680;8.998;2023-03-18T01:10:29;96320;;;12.6;77
68965;BME280;56017;48.680;8.998;2023-03-18T01:13:00;96320;;;12.6;77
68965;BME280;56017;48.680;8.998;2023-03-18T01:15:31;96320;;;12.6;77
68965;BME280;56017;48.680;8.998;2023-03-18T01:18:09;96310;;;12.6;77
68965;BME280;56017;48.680;8.998;2023-03-18T01:20:33;96310;;;12.6;77
68965;BME280;56017;48.680;8.998;2023-03-18T01:23:10;96300;;;12.6;77
68965;BME280;56017;48.680;8.998;2023-03-18T01:25:35;96300;;;12.6;77
68965;BME280;56017;48.680;8.998;2023-03-18T01:28:06;96300;;;12.6;77
68965;BME280;56017;48.680;8.998;2023-03-18T01:30:37;96290;;;12.7;77
68965;BME280;56017;48.680;8.998;2023-03-18T01:33:08;96300;;;12.7;77
68965;BME280;56017;48.680;8.998;2023-03-18T01:35:39;96300;;;12.7;77
68965;BME280;56017;48.680;8.998;2023-03-18T01:38:10;96310;;;12.6;77
68965;BME280;56017;48.680;8.998;2023-03-18T01:40:41;96310;;;12.6;77
68965;BME280;56017;48.680;8.998;2023-03-18T01:43:19;96300;;;12.5;77
68965;BME280;56017;48.680;8.998;2023-03-18T01:45:47;96300;;;12.4;77
68965;BME280;56017;48.680;8.998;2023-03-18T01:48:14;96310;;;12.4;77
68965;BME280;56017;48.680;8.998;2023-03-18T01:50:52;96310;;;12.4;77.5
68965;BME280;56017;48.680;8.998;2023-03-18T01:53:16;96300;;;12.4;77.5
68965;BME280;56017;48.680;8.998;2023-03-18T01:55:53;96300;;;12.4;77
68965;BME280;56017;48.680;8.998;2023-03-18T01:58:19;96300;;;12.4;77
68965;BME280;56017;48.680;8.998;2023-03-18T02:00:51;96300;;;12.4;77
68965;BME280;56017;48.680;8.998;2023-03-18T02:03:19;96300;;;12.3;77
68965;BME280;56017;48.680;8.998;2023-03-18T02:05:50;96290;;;12.3;77
68965;BME280;56017;48.680;8.998;2023-03-18T02:08:21;96290;;;12.3;77
68965;BME280;56017;48.680;8.998;2023-03-18T02:10:52;96290;;;12.2;77
68965;BME280;56017;48.680;8.998;2023-03-18T02:13:30;96290;;;12.2;77
68965;BME280;56017;48.680;8.998;2023-03-18T02:15:56;96300;;;12.2;77
68965;BME280;56017;48.680;8.998;2023-03-18T02:18:27;96290;;;12.1;77
68965;BME280;56017;48.680;8.998;2023-03-18T02:21:07;96290;;;12.1;77
68965;BME280;56017;48.680;8.998;2023-03-18T02:23:39;96290;;;12;77
68965;BME280;56017;48.680;8.998;2023-03-18T02:26:01;96290;;;12;77.5
68965;BME280;56017;48.680;8.998;2023-03-18T02:28:29;96300;;;12;77.5
68965;BME280;56017;48.680;8.998;2023-03-18T02:31:01;96310;;;12;77
68965;BME280;56017;48.680;8.998;2023-03-18T02:33:33;96300;;;12;77
68965;BME280;56017;48.680;8.998;2023-03-18T02:36:04;96300;;;12;77
68965;BME280;56017;48.680;8.998;2023-03-18T02:38:32;96310;;;11.9;77
68965;BME280;56017;48.680;8.998;2023-03-18T02:41:03;96310;;;11.9;77
68965;BME280;56017;48.680;8.998;2023-03-18T02:43:34;96300;;;11.8;77
68965;BME280;56017;48.680;8.998;2023-03-18T02:46:16;96300;;;11.8;77
68965;BME280;56017;48.680;8.998;2023-03-18T02:48:37;96290;;;11.8;77.5
68965;BME280;56017;48.680;8.998;2023-03-18T02:51:07;96300;;;11.9;77.5
68965;BME280;56017;48.680;8.998;2023-03-18T02:53:38;96300;;;11.9;77.5
68965;BME280;56017;48.680;8.998;2023-03-18T02:56:09;96290;;;12;77
68965;BME280;56017;48.680;8.998;2023-03-18T02:58:41;96290;;;12;77
68965;BME280;56017;48.680;8.998;2023-03-18T03:01:11;96300;;;12;77
68965;BME280;56017;48.680;8.998;2023-03-18T03:03:42;96300;;;12;77
68965;BME280;56017;48.680;8.998;2023-03-18T03:06:13;96310;;;12;77
68965;BME280;56017;48.680;8.998;2023-03-18T03:08:51;96310;;;11.9;77
68965;BME280;56017;48.680;8.998;2023-03-18T03:11:15;96310;;;11.8;77
68965;BME280;56017;48.680;8.998;2023-03-18T03:13:46;96310;;;11.8;77
68965;BME280;56017;48.680;8.998;2023-03-18T03:16:17;96310;;;11.7;77
68965;BME280;56017;48.680;8.998;2023-03-18T03:18:48;96320;;;11.7;77
68965;BME280;56017;48.680;8.998;2023-03-18T03:21:19;96320;;;11.7;77
68965;BME280;56017;48.680;8.998;2023-03-18T03:23:50;96320;;;11.6;77
68965;BME280;56017;48.680;8.998;2023-03-18T03:26:21;96320;;;11.6;77
68965;BME280;56017;48.680;8.998;2023-03-18T03:28:58;96320;;;11.5;77
68965;BME280;56017;48.680;8.998;2023-03-18T03:31:23;96320;;;11.3;77
68965;BME280;56017;48.680;8.998;2023-03-18T03:33:54;96330;;;11.2;77
68965;BME280;56017;48.680;8.998;2023-03-18T03:36:25;96330;;;11.1;77
68965;BME280;56017;48.680;8.998;2023-03-18T03:38:56;96330;;;11;77
68965;BME280;56017;48.680;8.998;2023-03-18T03:41:27;96330;;;10.9;77
68965;BME280;56017;48.680;8.998;2023-03-18T03:43:58;96330;;;10.8;77
68965;BME280;56017;48.680;8.998;2023-03-18T03:46:29;96320;;;10.9;77.5
68965;BME280;56017;48.680;8.998;2023-03-18T03:49:00;96320;;;11;77
68965;BME280;56017;48.680;8.998;2023-03-18T03:51:32;96330;;;11;77
68965;BME280;56017;48.680;8.998;2023-03-18T03:54:02;96320;;;11.1;77
68965;BME280;56017;48.680;8.998;2023-03-18T03:56:32;96320;;;11;77
68965;BME280;56017;48.680;8.998;2023-03-18T03:59:04;96330;;;10.9;77
68965;BME280;56017;48.680;8.998;2023-03-18T04:01:35;96320;;;10.9;77
68965;BME280;56017;48.680;8.998;2023-03-18T04:04:05;96320;;;10.7;77
68965;BME280;56017;48.680;8.998;2023-03-18T04:06:36;96320;;;10.5;77
68965;BME280;56017;48.680;8.998;2023-03-18T04:09:07;96330;;;10.3;77.5
68965;BME280;56017;48.680;8.998;2023-03-18T04:11:38;96320;;;10.2;77.5
68965;BME280;56017;48.680;8.998;2023-03-18T04:14:16;96330;;;10.1;77.5
68965;BME280;56017;48.680;8.998;2023-03-18T04:16:48;96330;;;10;77
68965;BME280;56017;48.680;8.998;2023-03-18T04:19:18;96330;;;9.9;77.5
68965;BME280;56017;48.680;8.998;2023-03-18T04:21:42;96330;;;10;77
68965;BME280;56017;48.680;8.998;2023-03-18T04:24:13;96330;;;10.1;77
68965;BME280;56017;48.680;8.998;2023-03-18T04:26:44;96330;;;10.1;77
68965;BME280;56017;48.680;8.998;2023-03-18T04:29:15;96330;;;9.9;77
68965;BME280;56017;48.680;8.998;2023-03-18T04:31:46;96330;;;9.8;76.5
68965;BME280;56017;48.680;8.998;2023-03-18T04:34:24;96330;;;9.7;76.5
68965;BME280;56017;48.680;8.998;2023-03-18T04:36:48;96330;;;9.6;76.5
68965;BME280;56017;48.680;8.998;2023-03-18T04:39:19;96340;;;9.7;77
68965;BME280;56017;48.680;8.998;2023-03-18T04:41:50;96340;;;9.7;76.5
68965;BME280;56017;48.680;8.998;2023-03-18T04:44:21;96340;;;9.5;76.5
68965;BME280;56017;48.680;8.998;2023-03-18T04:46:52;96350;;;9.3;76.5
68965;BME280;56017;48.680;8.998;2023-03-18T04:49:23;96350;;;9.1;76.5
68965;BME280;56017;48.680;8.998;2023-03-18T04:51:54;96340;;;9;76.5
68965;BME280;56017;48.680;8.998;2023-03-18T04:54:25;96350;;;8.8;76.5
68965;BME280;56017;48.680;8.998;2023-03-18T04:56:56;96350;;;8.6;77
68965;BME280;56017;48.680;8.998;2023-03-18T04:59:27;96340;;;8.5;76.5
68965;BME280;56017;48.680;8.998;2023-03-18T05:01:58;96340;;;8.5;77
68965;BME280;56017;48.680;8.998;2023-03-18T05:04:29;96340;;;8.5;76.5
68965;BME280;56017;48.680;8.998;2023-03-18T05:07:00;96340;;;8.7;77
68965;BME280;56017;48.680;8.998;2023-03-18T05:09:31;96340;;;9;77
68965;BME280;56017;48.680;8.998;2023-03-18T05:12:02;96340;;;9;76.5
68965;BME280;56017;48.680;8.998;2023-03-18T05:14:33;96350;;;8.8;76.5
68965;BME280;56017;48.680;8.998;2023-03-18T05:17:11;96350;;;8.6;76.5
68965;BME280;56017;48.680;8.998;2023-03-18T05:19:35;96350;;;8.4;77
68965;BME280;56017;48.680;8.998;2023-03-18T05:22:06;96350;;;8.4;77
68965;BME280;56017;48.680;8.998;2023-03-18T05:24:37;96360;;;8.2;77
68965;BME280;56017;48.680;8.998;2023-03-18T05:27:09;96360;;;8.2;77
68965;BME280;56017;48.680;8.998;2023-03-18T05:29:40;96360;;;8.2;76.5
68965;BME280;56017;48.680;8.998;2023-03-18T05:32:10;96360;;;8.2;76.5
68965;BME280;56017;48.680;8.998;2023-03-18T05:34:41;96350;;;8.3;76.5
68965;BME280;56017;48.680;8.998;2023-03-18T05:37:12;96360;;;8.1;76.5
68965;BME280;56017;48.680;8.998;2023-03-18T05:39:42;96360;;;7.9;76.5
68965;BME280;56017;48.680;8.998;2023-03-18T05:42:20;96360;;;7.7;76.5
68965;BME280;56017;48.680;8.998;2023-03-18T05:44:44;96360;;;7.6;76.5
68965;BME280;56017;48.680;8.998;2023-03-18T05:47:15;96360;;;7.6;76.5
68965;BME280;56017;48.680;8.998;2023-03-18T05:49:46;96360;;;7.6;76.5
68965;BME280;56017;48.680;8.998;2023-03-18T05:52:18;96360;;;7.5;76.5
68965;BME280;56017;48.680;8.998;2023-03-18T05:54:48;96360;;;7.5;76
68965;BME280;56017;48.680;8.998;2023-03-18T05:57:20;96360;;;7.4;76.5
68965;BME280;56017;48.680;8.998;2023-03-18T05:59:50;96360;;;7.4;76.5
68965;BME280;56017;48.680;8.998;2023-03-18T06:02:21;96360;;;7.4;76.5
68965;BME280;56017;48.680;8.998;2023-03-18T06:07:30;96360;;;7.3;76
68965;BME280;56017;48.680;8.998;2023-03-18T06:09:54;96360;;;7.1;76.5
68965;BME280;56017;48.680;8.998;2023-03-18T06:12:26;96370;;;7.1;77
68965;BME280;56017;48.680;8.998;2023-03-18T06:14:56;96370;;;7.2;76.5
68965;BME280;56017;48.680;8.998;2023-03-18T06:17:44;96370;;;7.1;76.5
68965;BME280;56017;48.680;8.998;2023-03-18T06:20:05;96370;;;7.1;76.5
68965;BME280;56017;48.680;8.998;2023-03-18T06:22:29;96380;;;7.2;76
68965;BME280;56017;48.680;8.998;2023-03-18T06:25:00;96380;;;7.1;76
68965;BME280;56017;48.680;8.998;2023-03-18T06:27:32;96380;;;7.2;76
68965;BME280;56017;48.680;8.998;2023-03-18T06:30:11;96380;;;7.3;76
68965;BME280;56017;48.680;8.998;2023-03-18T06:32:33;96380;;;7.3;76
68965;BME280;56017;48.680;8.998;2023-03-18T06:35:11;96390;;;7.4;75.5
68965;BME280;56017;48.680;8.998;2023-03-18T06:37:36;96390;;;7.4;76
68965;BME280;56017;48.680;8.998;2023-03-18T06:40:12;96390;;;7.4;76
68965;BME280;56017;48.680;8.998;2023-03-18T06:42:38;96380;;;7.4;76.5
68965;BME280;56017;48.680;8.998;2023-03-18T06:45:08;96380;;;7.5;76
68965;BME280;56017;48.680;8.998;2023-03-18T06:47:39;96380;;;7.6;76
68965;BME280;56017;48.680;8.998;2023-03-18T06:50:10;96380;;;7.7;75.5
68965;BME280;56017;48.680;8.998;2023-03-18T06:52:40;96380;;;7.7;76
68965;BME280;56017;48.680;8.998;2023-03-18T06:55:11;96380;;;7.7;76
68965;BME280;56017;48.680;8.998;2023-03-18T07:00:13;96380;;;7.9;76
68965;BME280;56017;48.680;8.998;2023-03-18T07:02:44;96380;;;8;76
68965;BME280;56017;48.680;8.998;2023-03-18T07:05:15;96380;;;8.3;76
68965;BME280;56017;48.680;8.998;2023-03-18T07:07:46;96380;;;8.5;76
68965;BME280;56017;48.680;8.998;2023-03-18T07:10:18;96380;;;8.8;75.5
68965;BME280;56017;48.680;8.998;2023-03-18T07:12:48;96380;;;8.9;75.5
68965;BME280;56017;48.680;8.998;2023-03-18T07:15:19;96380;;;9.1;75.5
68965;BME280;56017;48.680;8.998;2023-03-18T07:17:50;96380;;;9.2;75.5
68965;BME280;56017;48.680;8.998;2023-03-18T07:20:21;96380;;;9.4;75.5
68965;BME280;56017;48.680;8.998;2023-03-18T07:22:52;96390;;;9.5;75.5
68965;BME280;56017;48.680;8.998;2023-03-18T07:25:23;96400;;;9.7;75.5
68965;BME280;56017;48.680;8.998;2023-03-18T07:35:26;96390;;;10.4;75.5
68965;BME280;56017;48.680;8.998;2023-03-18T07:40:28;96390;;;10.6;75.5
68965;BME280;56017;48.680;8.998;2023-03-18T07:42:59;96400;;;10.8;75
68965;BME280;56017;48.680;8.998;2023-03-18T07:45:31;96400;;;10.9;75
68965;BME280;56017;48.680;8.998;2023-03-18T07:48:02;96400;;;11;75
68965;BME280;56017;48.680;8.998;2023-03-18T07:53:03;96400;;;11.2;75
68965;BME280;56017;48.680;8.998;2023-03-18T07:55:35;96390;;;11.3;75
68965;BME280;56017;48.680;8.998;2023-03-18T07:58:05;96400;;;11.5;75
68965;BME280;56017;48.680;8.998;2023-03-18T08:00:36;96400;;;11.6;75
68965;BME280;56017;48.680;8.998;2023-03-18T08:03:08;96400;;;11.8;75
68965;BME280;56017;48.680;8.998;2023-03-18T08:05:38;96400;;;12.2;75
68965;BME280;56017;48.680;8.998;2023-03-18T08:08:09;96400;;;12.5;75
68965;BME280;56017;48.680;8.998;2023-03-18T08:10:40;96400;;;12.8;74.5
68965;BME280;56017;48.680;8.998;2023-03-18T08:13:10;96400;;;12.9;74.5
68965;BME280;56017;48.680;8.998;2023-03-18T08:15:41;96400;;;13;74.5
68965;BME280;56017;48.680;8.998;2023-03-18T08:18:12;96400;;;13.1;74.5
68965;BME280;56017;48.680;8.998;2023-03-18T08:23:14;96400;;;13.3;74.5
68965;BME280;56017;48.680;8.998;2023-03-18T08:28:23;96400;;;13.5;74.5
68965;BME280;56017;48.680;8.998;2023-03-18T08:30:54;96400;;;13.6;74.5
68965;BME280;56017;48.680;8.998;2023-03-18T08:33:23;96400;;;13.7;74.5
68965;BME280;56017;48.680;8.998;2023-03-18T08:35:47;96400;;;13.8;74.5
68965;BME280;56017;48.680;8.998;2023-03-18T08:38:18;96390;;;13.9;74.5
68965;BME280;56017;48.680;8.998;2023-03-18T08:40:49;96400;;;13.9;74.5
68965;BME280;56017;48.680;8.998;2023-03-18T08:43:20;96400;;;14;74.5
68965;BME280;56017;48.680;8.998;2023-03-18T08:50:58;96390;;;14.3;74.5
68965;BME280;56017;48.680;8.998;2023-03-18T08:53:35;96390;;;14.3;74.5
68965;BME280;56017;48.680;8.998;2023-03-18T08:55:58;96380;;;14.4;74.5
68965;BME280;56017;48.680;8.998;2023-03-18T08:58:22;96380;;;14.5;74.5
68965;BME280;56017;48.680;8.998;2023-03-18T09:00:54;96380;;;14.6;74.5
68965;BME280;56017;48.680;8.998;2023-03-18T09:03:24;96380;;;14.6;74.5
68965;BME280;56017;48.680;8.998;2023-03-18T09:05:56;96380;;;14.8;74.5
68965;BME280;56017;48.680;8.998;2023-03-18T09:08:26;96380;;;14.9;74.5
68965;BME280;56017;48.680;8.998;2023-03-18T09:13:28;96380;;;15.1;74.5
68965;BME280;56017;48.680;8.998;2023-03-18T09:16:00;96380;;;15.2;74
68965;BME280;56017;48.680;8.998;2023-03-18T09:18:30;96370;;;15.3;74
68965;BME280;56017;48.680;8.998;2023-03-18T09:21:01;96370;;;15.2;74
68965;BME280;56017;48.680;8.998;2023-03-18T09:23:32;96370;;;15.3;74
68965;BME280;56017;48.680;8.998;2023-03-18T09:26:03;96370;;;15.3;74.5
68965;BME280;56017;48.680;8.998;2023-03-18T09:28:34;96370;;;15.4;74
68965;BME280;56017;48.680;8.998;2023-03-18T09:33:36;96370;;;15.5;74.5
68965;BME280;56017;48.680;8.998;2023-03-18T09:36:07;96370;;;15.7;74
68965;BME280;56017;48.680;8.998;2023-03-18T09:38:38;96370;;;15.9;74
68965;BME280;56017;48.680;8.998;2023-03-18T09:46:20;96360;;;16.2;74
68965;BME280;56017;48.680;8.998;2023-03-18T09:51:19;96360;;;16.9;75.5
68965;BME280;56017;48.680;8.998;2023-03-18T09:53:46;96350;;;18.3;76.5
68965;BME280;56017;48.680;8.998;2023-03-18T09:58:49;96350;;;20.6;73
68965;BME280;56017;48.680;8.998;2023-03-18T10:01:17;96340;;;21.8;71
68965;BME280;56017;48.680;8.998;2023-03-18T10:04:04;96340;;;22.6;69
68965;BME280;56017;48.680;8.998;2023-03-18T10:06:20;96340;;;22.7;67
68965;BME280;56017;48.680;8.998;2023-03-18T10:08:53;96340;;;22.2;68.5
68965;BME280;56017;48.680;8.998;2023-03-18T10:11:22;96340;;;21.8;67.5
68965;BME280;56017;48.680;8.998;2023-03-18T10:14:09;96340;;;21.1;68.5
68965;BME280;56017;48.680;8.998;2023-03-18T10:16:24;96340;;;21.1;68.5
68965;BME280;56017;48.680;8.998;2023-03-18T10:21:29;96340;;;20.3;69
68965;BME280;56017;48.680;8.998;2023-03-18T10:24:02;96340;;;19.6;69.5
68965;BME280;56017;48.680;8.998;2023-03-18T10:26:39;96340;;;19.1;70.5
68965;BME280;56017;48.680;8.998;2023-03-18T10:31:46;96350;;;19;71
68965;BME280;56017;48.680;8.998;2023-03-18T10:34:00;96350;;;19.5;71
68965;BME280;56017;48.680;8.998;2023-03-18T10:36:33;96350;;;19.8;70.5
68965;BME280;56017;48.680;8.998;2023-03-18T10:39:01;96350;;;19.8;70
68965;BME280;56017;48.680;8.998;2023-03-18T10:41:33;96340;;;20.2;71.5
68965;BME280;56017;48.680;8.998;2023-03-18T10:44:14;96340;;;20.4;69.5
68965;BME280;56017;48.680;8.998;2023-03-18T10:46:41;96340;;;20.1;69.5
68965;BME280;56017;48.680;8.998;2023-03-18T10:49:07;96340;;;19.8;70.5
68965;BME280;56017;48.680;8.998;2023-03-18T10:54:10;96330;;;20.1;71
68965;BME280;56017;48.680;8.998;2023-03-18T10:56:38;96330;;;20.2;70
68965;BME280;56017;48.680;8.998;2023-03-18T10:59:10;96330;;;20.2;71
68965;BME280;56017;48.680;8.998;2023-03-18T11:01:40;96340;;;20.7;72.5
68965;BME280;56017;48.680;8.998;2023-03-18T11:04:12;96320;;;21;70.5
68965;BME280;56017;48.680;8.998;2023-03-18T11:06:57;96320;;;20.4;69
68965;BME280;56017;48.680;8.998;2023-03-18T11:09:20;96320;;;19.9;70.5
68965;BME280;56017;48.680;8.998;2023-03-18T11:11:44;96320;;;20.1;70.5
68965;BME280;56017;48.680;8.998;2023-03-18T11:14:15;96320;;;20.1;70
68965;BME280;56017;48.680;8.998;2023-03-18T11:16:47;96310;;;19.6;70
68965;BME280;56017;48.680;8.998;2023-03-18T11:19:31;96310;;;19.1;71
68965;BME280;56017;48.680;8.998;2023-03-18T11:22:02;96310;;;18.9;72
68965;BME280;56017;48.680;8.998;2023-03-18T11:24:23;96310;;;19;73.5
68965;BME280;56017;48.680;8.998;2023-03-18T11:26:53;96310;;;19.8;72.5
68965;BME280;56017;48.680;8.998;2023-03-18T11:29:21;96300;;;20.1;70.5
68965;BME280;56017;48.680;8.998;2023-03-18T11:31:52;96310;;;19.6;70
68965;BME280;56017;48.680;8.998;2023-03-18T11:34:30;96310;;;19.3;71
68965;BME280;56017;48.680;8.998;2023-03-18T11:36:57;96300;;;19.3;71.5
68965;BME280;56017;48.680;8.998;2023-03-18T11:39:24;96300;;;19.6;71.5
68965;BME280;56017;48.680;8.998;2023-03-18T11:41:56;96300;;;19.6;70.5
68965;BME280;56017;48.680;8.998;2023-03-18T11:44:27;96300;;;19.5;71.5
68965;BME280;56017;48.680;8.998;2023-03-18T11:47:05;96300;;;19.8;71.5
68965;BME280;56017;48.680;8.998;2023-03-18T11:49:28;96300;;;19.5;71.5
68965;BME280;56017;48.680;8.998;2023-03-18T11:57:10;96300;;;19.9;72.5
68965;BME280;56017;48.680;8.998;2023-03-18T12:12:14;96280;;;20.3;71.5
68965;BME280;56017;48.680;8.998;2023-03-18T12:14:50;96270;;;20.4;71.5
68965;BME280;56017;48.680;8.998;2023-03-18T12:17:18;96270;;;20.5;71
68965;BME280;56017;48.680;8.998;2023-03-18T12:19:44;96270;;;20.5;70
68965;BME280;56017;48.680;8.998;2023-03-18T12:24:49;96260;;;20.3;70.5
68965;BME280;56017;48.680;8.998;2023-03-18T12:27:14;96260;;;20.7;71
68965;BME280;56017;48.680;8.998;2023-03-18T12:29:47;96260;;;21.1;70
68965;BME280;56017;48.680;8.998;2023-03-18T12:32:30;96260;;;21.1;70
68965;BME280;56017;48.680;8.998;2023-03-18T12:34:49;96250;;;21.2;70
68965;BME280;56017;48.680;8.998;2023-03-18T12:37:36;96250;;;21.5;70.5
68965;BME280;56017;48.680;8.998;2023-03-18T12:39:55;96250;;;22.3;70
68965;BME280;56017;48.680;8.998;2023-03-18T12:42:29;96250;;;23;68.5
68965;BME280;56017;48.680;8.998;2023-03-18T12:45:07;96240;;;23.4;68.5
68965;BME280;56017;48.680;8.998;2023-03-18T12:48:24;96250;;;23.8;66.5
68965;BME280;56017;48.680;8.998;2023-03-18T12:49:53;96240;;;23.3;69
68965;BME280;56017;48.680;8.998;2023-03-18T12:52:28;96250;;;23.2;69
68965;BME280;56017;48.680;8.998;2023-03-18T12:54:58;96240;;;22.9;68
68965;BME280;56017;48.680;8.998;2023-03-18T13:00:05;96250;;;22.2;69
68965;BME280;56017;48.680;8.998;2023-03-18T13:02:35;96240;;;22.1;69
68965;BME280;56017;48.680;8.998;2023-03-18T13:04:58;96240;;;22.5;69.5
68965;BME280;56017;48.680;8.998;2023-03-18T13:10:12;96230;;;23.2;68.5
68965;BME280;56017;48.680;8.998;2023-03-18T13:12:31;96230;;;23.1;68.5
68965;BME280;56017;48.680;8.998;2023-03-18T13:15:33;96230;;;23.2;69
68965;BME280;56017;48.680;8.998;2023-03-18T13:17:33;96220;;;23.3;68
68965;BME280;56017;48.680;8.998;2023-03-18T13:20:09;96230;;;23;68.5
68965;BME280;56017;48.680;8.998;2023-03-18T13:22:35;96230;;;23.4;69
68965;BME280;56017;48.680;8.998;2023-03-18T13:27:41;96220;;;23.6;68
68965;BME280;56017;48.680;8.998;2023-03-18T13:30:17;96220;;;22.7;69
68965;BME280;56017;48.680;8.998;2023-03-18T13:32:46;96220;;;22;69.5
68965;BME280;56017;48.680;8.998;2023-03-18T13:36:21;96220;;;21.6;70.5
68965;BME280;56017;48.680;8.998;2023-03-18T13:38:00;96230;;;21.5;70.5
68965;BME280;56017;48.680;8.998;2023-03-18T13:40:44;96230;;;21.3;70.5
68965;BME280;56017;48.680;8.998;2023-03-18T13:42:48;96230;;;20.9;70.5
68965;BME280;56017;48.680;8.998;2023-03-18T13:46:17;96230;;;20.6;71
68965;BME280;56017;48.680;8.998;2023-03-18T13:47:46;96230;;;20.5;71
68965;BME280;56017;48.680;8.998;2023-03-18T13:50:25;96230;;;20.8;70.5
68965;BME280;56017;48.680;8.998;2023-03-18T13:55:21;96220;;;21.2;71
68965;BME280;56017;48.680;8.998;2023-03-18T13:58:07;96220;;;21.8;70
68965;BME280;56017;48.680;8.998;2023-03-18T14:00:33;96220;;;21.8;70.5
68965;BME280;56017;48.680;8.998;2023-03-18T14:03:11;96220;;;21.9;70
68965;BME280;56017;48.680;8.998;2023-03-18T14:05:35;96210;;;21.5;70
68965;BME280;56017;48.680;8.998;2023-03-18T14:07:58;96210;;;21.5;70
68965;BME280;56017;48.680;8.998;2023-03-18T14:10:22;96210;;;21.3;70
68965;BME280;56017;48.680;8.998;2023-03-18T14:12:53;96220;;;21;70
68965;BME280;56017;48.680;8.998;2023-03-18T14:15:41;96220;;;20.9;70
68965;BME280;56017;48.680;8.998;2023-03-18T14:17:55;96220;;;20.7;70.5
68965;BME280;56017;48.680;8.998;2023-03-18T14:23:17;96220;;;20.7;70.5
68965;BME280;56017;48.680;8.998;2023-03-18T14:25:35;96220;;;20.7;69.5
68965;BME280;56017;48.680;8.998;2023-03-18T14:30:44;96220;;;20.6;69.5
68965;BME280;56017;48.680;8.998;2023-03-18T14:33:03;96220;;;20.5;69.5
68965;BME280;56017;48.680;8.998;2023-03-18T14:35:33;96210;;;20.6;69.5
68965;BME280;56017;48.680;8.998;2023-03-18T14:38:04;96210;;;20.6;69.5
68965;BME280;56017;48.680;8.998;2023-03-18T14:40:35;96200;;;21;69
68965;BME280;56017;48.680;8.998;2023-03-18T14:45:38;96200;;;22.2;67
68965;BME280;56017;48.680;8.998;2023-03-18T14:48:11;96190;;;22.4;67.5
68965;BME280;56017;48.680;8.998;2023-03-18T14:50:39;96190;;;22.6;67
68965;BME280;56017;48.680;8.998;2023-03-18T14:53:17;96190;;;22.5;66.5
68965;BME280;56017;48.680;8.998;2023-03-18T14:55:47;96190;;;22.5;67.5
68965;BME280;56017;48.680;8.998;2023-03-18T14:58:14;96190;;;22.2;67.5
68965;BME280;56017;48.680;8.998;2023-03-18T15:00:42;96190;;;21.8;68
68965;BME280;56017;48.680;8.998;2023-03-18T15:03:14;96190;;;21.2;68.5
68965;BME280;56017;48.680;8.998;2023-03-18T15:05:44;96190;;;20.7;68.5
68965;BME280;56017;48.680;8.998;2023-03-18T15:08:15;96190;;;20.4;69
68965;BME280;56017;48.680;8.998;2023-03-18T15:10:53;96190;;;20.1;69.5
68965;BME280;56017;48.680;8.998;2023-03-18T15:15:48;96180;;;19.8;70
68965;BME280;56017;48.680;8.998;2023-03-18T15:18:19;96180;;;19.9;70
68965;BME280;56017;48.680;8.998;2023-03-18T15:20:57;96180;;;20;70
68965;BME280;56017;48.680;8.998;2023-03-18T15:23:22;96180;;;20;70
68965;BME280;56017;48.680;8.998;2023-03-18T15:28:28;96170;;;19.8;70
68965;BME280;56017;48.680;8.998;2023-03-18T15:30:53;96170;;;20.2;69.5
68965;BME280;56017;48.680;8.998;2023-03-18T15:33:28;96170;;;21;69
68965;BME280;56017;48.680;8.998;2023-03-18T15:36:02;96170;;;21.7;68.5
68965;BME280;56017;48.680;8.998;2023-03-18T15:38:27;96170;;;22.9;67.5
68965;BME280;56017;48.680;8.998;2023-03-18T15:40:57;96170;;;23.4;66.5
68965;BME280;56017;48.680;8.998;2023-03-18T15:43:42;96170;;;23.5;66
68965;BME280;56017;48.680;8.998;2023-03-18T15:51:02;96170;;;21.9;68.5
68965;BME280;56017;48.680;8.998;2023-03-18T15:53:34;96180;;;22.3;68.5
68965;BME280;56017;48.680;8.998;2023-03-18T15:56:08;96180;;;22.2;68
68965;BME280;56017;48.680;8.998;2023-03-18T16:01:04;96190;;;20.9;68.5
68965;BME280;56017;48.680;8.998;2023-03-18T16:03:38;96190;;;20;69.5
68965;BME280;56017;48.680;8.998;2023-03-18T16:08:37;96190;;;19.3;70.5
68965;BME280;56017;48.680;8.998;2023-03-18T16:11:09;96190;;;19;71
68965;BME280;56017;48.680;8.998;2023-03-18T16:13:46;96190;;;18.8;71
68965;BME280;56017;48.680;8.998;2023-03-18T16:16:26;96200;;;18.8;71
68965;BME280;56017;48.680;8.998;2023-03-18T16:18:48;96200;;;19;70